Time;durP1;ratioP1;P1;durP2;ratioP2;P2;SDS_P1;SDS_P2;PMS_P1;PMS_P2;Temp;Humidity;BMP_temperature;BMP_pressure;BME280_temperature;BME280_humidity;BME280_pressure;Samples;Min_cycle;Max_cycle;Signal;HPM_P1;HPM_P2
2021/05/09 00:00:42;;;;;;;;;;;;;;;5.28;72.40;93713.94;5110561;28;19920;-81
2021/05/09 00:03:08;;;;;;;;;;;;;;;5.14;72.13;93713.63;5110278;28;19942;-82
2021/05/09 00:05:34;;;;;;;;;;;;;;;5.14;73.68;93712.84;5110333;28;20298;-81
2021/05/09 00:08:00;;;;;;;;;;;;;;;5.14;72.63;93708.53;5110415;28;19927;-80
2021/05/09 00:10:26;;;;;;;;;;;;;;;5.08;73.46;93715.09;5109946;28;20371;-80
2021/05/09 00:12:53;;;;;;;;;;;;;;;5.01;73.90;93715.91;5110128;28;19924;-80
2021/05/09 00:15:20;;;;;;;;;;;;;;;4.86;73.70;93714.00;5110423;28;20271;-80
2021/05/09 00:17:46;;;;;;;;;;;;;;;4.90;73.33;93720.38;5110231;28;20419;-80
2021/05/09 00:20:12;;;;;;;;;;;;;;;4.83;73.68;93716.91;5109971;28;19933;-81
2021/05/09 00:22:38;;;;;;;;;;;;;;;4.75;74.05;93714.34;5109930;28;19931;-81
2021/05/09 00:25:05;;;;;;;;;;;;;;;4.66;73.60;93711.81;5109777;28;19924;-81
2021/05/09 00:27:31;;;;;;;;;;;;;;;4.59;74.91;93708.34;5110298;28;20263;-81
2021/05/09 00:29:58;;;;;;;;;;;;;;;4.55;75.68;93707.06;5109742;28;19930;-81
2021/05/09 00:32:24;;;;;;;;;;;;;;;4.54;75.30;93713.88;5109652;28;19923;-82
2021/05/09 00:34:51;;;;;;;;;;;;;;;4.53;75.39;93716.59;5110107;28;19923;-81
2021/05/09 00:37:17;;;;;;;;;;;;;;;4.57;74.99;93719.63;5109875;28;19919;-81
2021/05/09 00:39:44;;;;;;;;;;;;;;;4.49;75.22;93721.19;5110086;28;20375;-81
2021/05/09 00:42:10;;;;;;;;;;;;;;;4.46;74.47;93710.56;5110251;28;19981;-81
2021/05/09 00:44:36;;;;;;;;;;;;;;;4.47;76.22;93707.03;5110156;28;19920;-81
2021/05/09 00:47:06;;;;;;;;;;;;;;;4.39;75.08;93721.38;5110006;28;19924;-81
2021/05/09 00:49:32;;;;;;;;;;;;;;;4.37;75.04;93727.56;5109991;28;20317;-82
2021/05/09 00:51:59;;;;;;;;;;;;;;;4.41;76.65;93721.22;5110025;28;20371;-81
2021/05/09 00:54:26;;;;;;;;;;;;;;;4.41;76.04;93716.91;5110025;28;19919;-81
2021/05/09 00:56:54;;;;;;;;;;;;;;;4.46;75.65;93719.00;5109811;28;20405;-80
2021/05/09 00:59:20;;;;;;;;;;;;;;;4.41;74.76;93718.66;5109999;28;19927;-81
2021/05/09 01:01:47;;;;;;;;;;;;;;;4.34;76.07;93717.69;5110088;28;19928;-81
2021/05/09 01:04:14;;;;;;;;;;;;;;;4.28;75.85;93729.31;5109564;28;19927;-81
2021/05/09 01:06:41;;;;;;;;;;;;;;;4.22;75.80;93724.84;5109647;28;20405;-81
2021/05/09 01:09:07;;;;;;;;;;;;;;;4.23;76.08;93731.53;5109394;28;19930;-81
2021/05/09 01:11:33;;;;;;;;;;;;;;;4.24;76.36;93739.00;5109861;28;19919;-81
2021/05/09 01:13:59;;;;;;;;;;;;;;;4.20;76.30;93736.91;5109428;28;19920;-80
2021/05/09 01:16:25;;;;;;;;;;;;;;;4.23;75.93;93744.25;5109577;28;19924;-81
2021/05/09 01:18:51;;;;;;;;;;;;;;;4.23;76.31;93746.78;5109477;28;19923;-81
2021/05/09 01:21:18;;;;;;;;;;;;;;;4.23;75.75;93739.97;5109973;28;19920;-81
2021/05/09 01:23:44;;;;;;;;;;;;;;;4.22;75.90;93737.56;5111589;28;19923;-81
2021/05/09 01:26:10;;;;;;;;;;;;;;;4.18;76.01;93734.53;5113565;28;19920;-80
2021/05/09 01:28:36;;;;;;;;;;;;;;;4.12;76.14;93737.72;5113432;28;20325;-81
2021/05/09 01:31:02;;;;;;;;;;;;;;;4.12;76.79;93735.97;5113214;28;19939;-81
2021/05/09 01:33:29;;;;;;;;;;;;;;;4.08;76.62;93741.53;5113246;28;19926;-81
2021/05/09 01:35:55;;;;;;;;;;;;;;;4.06;76.42;93739.13;5113396;28;19926;-81
2021/05/09 01:38:22;;;;;;;;;;;;;;;3.99;76.49;93735.63;5113276;28;19923;-81
2021/05/09 01:40:48;;;;;;;;;;;;;;;3.90;77.35;93729.72;5112889;28;20321;-81
2021/05/09 01:43:14;;;;;;;;;;;;;;;3.82;77.71;93732.25;5112901;28;20389;-80
2021/05/09 01:45:40;;;;;;;;;;;;;;;3.82;77.84;93732.25;5112810;28;19935;-81
2021/05/09 01:48:06;;;;;;;;;;;;;;;3.76;77.20;93738.75;5112547;28;20401;-82
2021/05/09 01:50:32;;;;;;;;;;;;;;;3.70;77.67;93740.16;5112490;28;19920;-82
2021/05/09 01:53:00;;;;;;;;;;;;;;;3.56;79.10;93745.81;5112534;28;19927;-83
2021/05/09 01:55:27;;;;;;;;;;;;;;;3.53;79.26;93741.84;5112670;28;19927;-82
2021/05/09 01:57:53;;;;;;;;;;;;;;;3.60;79.45;93740.28;5112880;28;19981;-82
2021/05/09 02:00:20;;;;;;;;;;;;;;;3.68;78.61;93748.88;5112401;28;19934;-82
2021/05/09 02:02:46;;;;;;;;;;;;;;;3.70;78.27;93742.69;5112530;28;19965;-82
2021/05/09 02:05:13;;;;;;;;;;;;;;;3.63;77.77;93748.53;5112447;28;20264;-81
2021/05/09 02:07:39;;;;;;;;;;;;;;;3.44;77.81;93753.72;5112391;28;19935;-82
2021/05/09 02:10:05;;;;;;;;;;;;;;;3.43;79.09;93747.03;5112336;28;19926;-80
2021/05/09 02:12:32;;;;;;;;;;;;;;;3.37;78.95;93745.09;5112249;28;20391;-80
2021/05/09 02:14:58;;;;;;;;;;;;;;;3.32;79.25;93748.09;5112427;28;19919;-80
2021/05/09 02:17:24;;;;;;;;;;;;;;;3.36;78.89;93748.59;5112001;28;19946;-80
2021/05/09 02:19:50;;;;;;;;;;;;;;;3.31;78.58;93746.50;5112101;28;20402;-80
2021/05/09 02:22:16;;;;;;;;;;;;;;;3.33;79.42;93752.22;5112335;28;19920;-80
2021/05/09 02:24:42;;;;;;;;;;;;;;;3.38;78.97;93753.53;5112046;28;19927;-80
2021/05/09 02:27:09;;;;;;;;;;;;;;;3.42;78.87;93760.69;5112032;28;19924;-80
2021/05/09 02:29:36;;;;;;;;;;;;;;;3.43;79.08;93759.72;5111898;28;19990;-81
2021/05/09 02:32:02;;;;;;;;;;;;;;;3.40;78.55;93762.59;5112191;28;19923;-81
2021/05/09 02:34:28;;;;;;;;;;;;;;;3.37;78.89;93762.09;5111204;28;19985;-81
2021/05/09 02:36:54;;;;;;;;;;;;;;;3.34;79.22;93756.34;5111833;28;20378;-81
2021/05/09 02:39:20;;;;;;;;;;;;;;;3.30;79.66;93764.44;5112018;28;20287;-82
2021/05/09 02:41:46;;;;;;;;;;;;;;;3.11;79.33;93768.78;5111890;28;20370;-81
2021/05/09 02:44:12;;;;;;;;;;;;;;;3.01;81.34;93763.00;5111899;28;20028;-81
2021/05/09 02:46:39;;;;;;;;;;;;;;;2.96;81.31;93770.25;5111919;28;20311;-81
2021/05/09 02:49:05;;;;;;;;;;;;;;;3.02;81.08;93772.19;5111226;28;19927;-81
2021/05/09 02:51:31;;;;;;;;;;;;;;;2.86;81.17;93766.06;5111873;28;19919;-82
2021/05/09 02:53:57;;;;;;;;;;;;;;;2.72;82.69;93764.88;5111602;28;19920;-81
2021/05/09 02:56:23;;;;;;;;;;;;;;;2.76;82.84;93770.44;5111425;28;19924;-81
2021/05/09 02:58:49;;;;;;;;;;;;;;;2.84;82.84;93773.03;5111518;28;19926;-81
2021/05/09 03:01:15;;;;;;;;;;;;;;;2.79;82.69;93776.00;5111356;28;19920;-82
2021/05/09 03:03:42;;;;;;;;;;;;;;;2.71;83.37;93775.16;5111130;28;19924;-82
2021/05/09 03:06:08;;;;;;;;;;;;;;;2.66;83.24;93773.88;5111624;28;19927;-81
2021/05/09 03:08:34;;;;;;;;;;;;;;;2.65;83.43;93774.78;5111204;28;19924;-80
2021/05/09 03:11:00;;;;;;;;;;;;;;;2.63;82.99;93784.28;5111402;28;19963;-81
2021/05/09 03:13:27;;;;;;;;;;;;;;;2.64;83.35;93780.03;5110870;28;19927;-81
2021/05/09 03:15:53;;;;;;;;;;;;;;;2.67;83.67;93778.00;5111349;28;20043;-81
2021/05/09 03:18:20;;;;;;;;;;;;;;;2.70;83.40;93787.06;5110926;28;19931;-81
2021/05/09 03:20:47;;;;;;;;;;;;;;;2.67;81.82;93797.47;5111075;28;19924;-81
2021/05/09 03:23:13;;;;;;;;;;;;;;;2.70;82.47;93797.19;5111030;28;19920;-81
2021/05/09 03:25:39;;;;;;;;;;;;;;;2.77;81.87;93792.31;5110946;28;19930;-81
2021/05/09 03:28:05;;;;;;;;;;;;;;;2.79;81.73;93796.31;5110797;28;19924;-81
2021/05/09 03:30:31;;;;;;;;;;;;;;;2.86;81.61;93799.06;5110852;28;19920;-81
2021/05/09 03:32:57;;;;;;;;;;;;;;;2.91;81.04;93796.88;5110930;28;19964;-81
2021/05/09 03:35:23;;;;;;;;;;;;;;;2.95;81.25;93794.84;5110906;28;19920;-81
2021/05/09 03:37:50;;;;;;;;;;;;;;;3.00;81.45;93804.56;5111261;28;19923;-80
2021/05/09 03:40:16;;;;;;;;;;;;;;;3.02;80.84;93797.59;5110566;28;19920;-80
2021/05/09 03:42:42;;;;;;;;;;;;;;;3.09;80.08;93803.66;5110615;28;19924;-80
2021/05/09 03:45:09;;;;;;;;;;;;;;;3.13;80.00;93804.94;5110740;28;19926;-80
2021/05/09 03:47:36;;;;;;;;;;;;;;;3.12;79.74;93805.09;5110682;28;19971;-80
2021/05/09 03:50:02;;;;;;;;;;;;;;;3.08;79.94;93814.75;5110584;28;19927;-80
2021/05/09 03:52:28;;;;;;;;;;;;;;;3.11;80.13;93819.56;5110644;28;19953;-80
2021/05/09 03:54:56;;;;;;;;;;;;;;;3.12;80.77;93822.88;5110509;28;19923;-80
2021/05/09 03:57:22;;;;;;;;;;;;;;;3.07;80.56;93828.41;5110278;28;19924;-81
2021/05/09 03:59:48;;;;;;;;;;;;;;;3.12;80.56;93831.28;5110114;28;20375;-81
2021/05/09 04:02:14;;;;;;;;;;;;;;;3.13;79.71;93829.53;5110567;28;19919;-82
2021/05/09 04:04:40;;;;;;;;;;;;;;;3.07;80.35;93825.84;5110141;28;20352;-82
2021/05/09 04:07:06;;;;;;;;;;;;;;;3.15;80.44;93822.59;5110109;28;19926;-79
2021/05/09 04:09:32;;;;;;;;;;;;;;;3.24;80.37;93825.97;5110209;28;20302;-80
2021/05/09 04:11:59;;;;;;;;;;;;;;;3.27;79.98;93830.72;5110574;28;19920;-81
2021/05/09 04:14:26;;;;;;;;;;;;;;;3.33;80.57;93836.03;5110222;28;19934;-81
2021/05/09 04:16:52;;;;;;;;;;;;;;;3.41;80.13;93835.28;5109018;28;19919;-82
2021/05/09 04:19:18;;;;;;;;;;;;;;;3.40;79.70;93843.03;5107764;28;19924;-82
2021/05/09 04:21:44;;;;;;;;;;;;;;;3.45;80.33;93846.75;5109352;28;20028;-81
2021/05/09 04:24:10;;;;;;;;;;;;;;;3.44;80.01;93846.88;5109830;28;19920;-81
2021/05/09 04:26:36;;;;;;;;;;;;;;;3.56;80.17;93847.44;5110107;28;19946;-81
2021/05/09 04:29:03;;;;;;;;;;;;;;;3.67;80.10;93844.63;5110245;28;19919;-81
2021/05/09 04:31:29;;;;;;;;;;;;;;;3.71;80.02;93856.06;5110138;28;19969;-81
2021/05/09 04:33:55;;;;;;;;;;;;;;;3.97;79.22;93844.28;5109725;28;19920;-80
2021/05/09 04:36:21;;;;;;;;;;;;;;;3.97;78.96;93845.06;5110487;28;19965;-80
2021/05/09 04:38:47;;;;;;;;;;;;;;;4.12;78.23;93842.75;5109999;28;19920;-83
2021/05/09 04:41:13;;;;;;;;;;;;;;;4.09;78.21;93848.16;5110140;28;20338;-83
2021/05/09 04:43:40;;;;;;;;;;;;;;;3.59;81.75;93849.66;5110224;28;19942;-83
2021/05/09 04:46:07;;;;;;;;;;;;;;;3.70;82.00;93856.25;5109762;28;20354;-83
2021/05/09 04:48:33;;;;;;;;;;;;;;;4.14;80.31;93856.13;5109853;28;19920;-83
2021/05/09 04:50:59;;;;;;;;;;;;;;;4.41;77.37;93859.34;5110109;28;19965;-82
2021/05/09 04:53:25;;;;;;;;;;;;;;;4.62;77.20;93842.88;5109482;28;20403;-82
2021/05/09 04:55:52;;;;;;;;;;;;;;;4.68;77.00;93854.19;5109976;28;19920;-83
2021/05/09 04:58:18;;;;;;;;;;;;;;;4.98;75.69;93849.41;5111339;28;20398;-82
2021/05/09 05:00:44;;;;;;;;;;;;;;;5.22;74.73;93852.91;5113599;28;20022;-81
2021/05/09 05:03:11;;;;;;;;;;;;;;;5.32;73.60;93861.19;5113950;28;19927;-81
2021/05/09 05:05:37;;;;;;;;;;;;;;;5.35;73.70;93853.22;5113689;28;19924;-81
2021/05/09 05:08:03;;;;;;;;;;;;;;;5.47;73.24;93858.75;5113561;28;19933;-81
2021/05/09 05:10:29;;;;;;;;;;;;;;;5.48;73.68;93854.47;5113626;28;19927;-81
2021/05/09 05:12:55;;;;;;;;;;;;;;;5.70;73.71;93850.44;5113406;28;19924;-81
2021/05/09 05:15:22;;;;;;;;;;;;;;;5.83;72.11;93856.81;5113774;28;19919;-81
2021/05/09 05:17:48;;;;;;;;;;;;;;;6.00;72.18;93855.78;5112925;28;19927;-81
2021/05/09 05:20:15;;;;;;;;;;;;;;;6.37;71.13;93855.31;5113019;28;19923;-80
2021/05/09 05:22:41;;;;;;;;;;;;;;;6.57;69.68;93853.13;5113396;28;20371;-80
2021/05/09 05:25:08;;;;;;;;;;;;;;;6.84;68.99;93856.16;5112943;28;19924;-80
2021/05/09 05:27:34;;;;;;;;;;;;;;;7.03;68.01;93857.47;5113145;28;19920;-82
2021/05/09 05:30:00;;;;;;;;;;;;;;;7.00;67.37;93857.81;5113224;28;19920;-82
2021/05/09 05:32:26;;;;;;;;;;;;;;;6.97;67.66;93860.72;5113109;28;20372;-83
2021/05/09 05:34:52;;;;;;;;;;;;;;;7.20;67.33;93873.47;5112942;28;19927;-84
2021/05/09 05:37:19;;;;;;;;;;;;;;;7.39;66.50;93881.63;5112966;28;20363;-84
2021/05/09 05:39:48;;;;;;;;;;;;;;;7.76;65.65;93879.22;5112949;28;19923;-83
2021/05/09 05:42:14;;;;;;;;;;;;;;;8.10;64.59;93883.00;5113223;28;19926;-84
2021/05/09 05:44:40;;;;;;;;;;;;;;;8.46;63.53;93878.13;5113369;28;19931;-84
2021/05/09 05:47:06;;;;;;;;;;;;;;;8.54;60.90;93878.84;5112797;28;19924;-82
2021/05/09 05:49:32;;;;;;;;;;;;;;;8.78;60.18;93879.47;5112898;28;19965;-83
2021/05/09 05:51:58;;;;;;;;;;;;;;;9.17;60.19;93877.47;5113112;28;19926;-82
2021/05/09 05:54:25;;;;;;;;;;;;;;;9.66;61.20;93881.97;5112338;28;19924;-82
2021/05/09 05:56:51;;;;;;;;;;;;;;;9.84;56.72;93848.16;5112618;28;20418;-81
2021/05/09 05:59:17;;;;;;;;;;;;;;;10.45;54.91;93898.03;5112629;28;19930;-81
2021/05/09 06:01:43;;;;;;;;;;;;;;;10.80;53.92;93887.69;5112539;28;20244;-81
2021/05/09 06:04:09;;;;;;;;;;;;;;;11.12;53.71;93883.78;5112802;28;19919;-82
2021/05/09 06:06:35;;;;;;;;;;;;;;;11.57;51.24;93890.94;5112501;28;19965;-81
2021/05/09 06:09:03;;;;;;;;;;;;;;;11.84;48.99;93894.28;5112487;28;19930;-81
2021/05/09 06:11:30;;;;;;;;;;;;;;;12.10;48.56;93902.19;5112589;28;20359;-80
2021/05/09 06:13:56;;;;;;;;;;;;;;;12.43;47.44;93901.31;5112097;28;19919;-81
2021/05/09 06:16:22;;;;;;;;;;;;;;;12.74;46.83;93897.22;5112216;28;19919;-81
2021/05/09 06:18:48;;;;;;;;;;;;;;;12.86;43.04;93897.34;5112053;28;19923;-82
2021/05/09 06:21:14;;;;;;;;;;;;;;;12.94;42.87;93901.47;5107496;28;19920;-83
2021/05/09 06:23:40;;;;;;;;;;;;;;;13.22;44.11;93892.59;5110276;28;19930;-83
2021/05/09 06:26:06;;;;;;;;;;;;;;;13.50;45.01;93891.41;5111269;28;20000;-82
2021/05/09 06:28:34;;;;;;;;;;;;;;;13.31;42.25;93903.44;5112395;28;19969;-82
2021/05/09 06:31:00;;;;;;;;;;;;;;;13.27;42.48;93900.50;5112074;28;19924;-82
2021/05/09 06:33:26;;;;;;;;;;;;;;;13.25;42.46;93899.13;5111710;28;19919;-83
2021/05/09 06:35:53;;;;;;;;;;;;;;;13.60;41.48;93896.91;5111741;28;19919;-83
2021/05/09 06:38:19;;;;;;;;;;;;;;;13.89;42.67;93889.50;5112142;28;20324;-83
2021/05/09 06:40:45;;;;;;;;;;;;;;;14.36;43.20;93897.78;5116456;27;19919;-83
2021/05/09 06:43:12;;;;;;;;;;;;;;;13.27;42.45;93902.25;5132064;27;19928;-85
2021/05/09 06:45:39;;;;;;;;;;;;;;;13.23;42.96;93896.75;5132178;27;19928;-83
2021/05/09 06:48:05;;;;;;;;;;;;;;;13.51;41.53;93908.47;5131865;27;20483;-82
2021/05/09 06:50:33;;;;;;;;;;;;;;;13.28;41.46;93909.81;5131904;27;19926;-83
2021/05/09 06:52:59;;;;;;;;;;;;;;;14.08;42.82;93904.25;5132093;27;19923;-81
2021/05/09 06:55:25;;;;;;;;;;;;;;;13.74;40.49;93913.06;5132079;27;19924;-83
2021/05/09 06:57:51;;;;;;;;;;;;;;;14.08;38.98;93912.78;5132052;27;19919;-82
2021/05/09 07:00:23;;;;;;;;;;;;;;;14.12;39.60;93907.97;5131934;27;19923;-83
2021/05/09 07:02:50;;;;;;;;;;;;;;;14.01;40.97;93907.69;5132669;27;19926;-80
2021/05/09 07:05:16;;;;;;;;;;;;;;;14.92;41.41;93908.09;5132534;27;19923;-82
2021/05/09 07:07:46;;;;;;;;;;;;;;;15.59;38.05;93914.09;5132406;27;20290;-83
2021/05/09 07:10:12;;;;;;;;;;;;;;;15.97;37.53;93905.16;5132283;27;19919;-82
2021/05/09 07:12:38;;;;;;;;;;;;;;;16.32;37.35;93908.75;5124162;27;19928;-82
2021/05/09 07:15:05;;;;;;;;;;;;;;;16.75;35.76;93904.13;5111569;28;19976;-82
2021/05/09 07:17:31;;;;;;;;;;;;;;;17.05;32.38;93908.34;5111465;28;19923;-82
2021/05/09 07:19:58;;;;;;;;;;;;;;;16.36;31.08;93914.25;5111830;28;19972;-83
2021/05/09 07:22:28;;;;;;;;;;;;;;;16.72;31.49;93906.41;5111221;28;20385;-83
2021/05/09 07:24:54;;;;;;;;;;;;;;;17.27;33.62;93906.88;5111401;28;20364;-83
2021/05/09 07:27:20;;;;;;;;;;;;;;;17.66;33.46;93907.00;5109320;28;20290;-83
2021/05/09 07:29:47;;;;;;;;;;;;;;;17.72;31.46;93903.44;5111157;28;20367;-83
2021/05/09 07:32:13;;;;;;;;;;;;;;;17.87;32.24;93902.88;5111492;28;20344;-82
2021/05/09 07:34:39;;;;;;;;;;;;;;;17.90;33.10;93902.41;5111088;28;20367;-82
2021/05/09 07:37:06;;;;;;;;;;;;;;;17.98;29.61;93909.03;5111391;28;19973;-83
2021/05/09 07:39:32;;;;;;;;;;;;;;;17.74;29.91;93911.00;5111071;28;19926;-83
2021/05/09 07:41:58;;;;;;;;;;;;;;;17.64;31.08;93909.03;5110878;28;19931;-83
2021/05/09 07:44:24;;;;;;;;;;;;;;;17.48;32.75;93908.78;5111110;28;19954;-82
2021/05/09 07:46:51;;;;;;;;;;;;;;;17.74;32.46;93911.78;5110977;28;20442;-81
2021/05/09 07:49:17;;;;;;;;;;;;;;;18.10;32.54;93919.34;5110837;28;19919;-81
2021/05/09 07:51:43;;;;;;;;;;;;;;;18.24;31.11;93898.22;5110764;28;20323;-80
2021/05/09 07:54:10;;;;;;;;;;;;;;;18.67;32.57;93914.06;5110963;28;20381;-81
2021/05/09 07:56:38;;;;;;;;;;;;;;;18.90;30.21;93917.44;5110744;28;19920;-81
2021/05/09 07:59:04;;;;;;;;;;;;;;;19.05;29.11;93911.63;5110590;28;20389;-81
2021/05/09 08:01:30;;;;;;;;;;;;;;;19.07;28.48;93915.56;5111092;28;19923;-82
2021/05/09 08:03:56;;;;;;;;;;;;;;;19.17;28.81;93912.28;5110986;28;20464;-82
2021/05/09 08:06:22;;;;;;;;;;;;;;;19.41;30.02;93900.75;5110792;28;19919;-82
2021/05/09 08:08:48;;;;;;;;;;;;;;;19.69;29.31;93902.31;5110820;28;19934;-81
2021/05/09 08:11:15;;;;;;;;;;;;;;;19.68;29.57;93900.75;5110842;28;19923;-81
2021/05/09 08:13:41;;;;;;;;;;;;;;;19.81;29.06;93896.13;5110757;28;19921;-82
2021/05/09 08:16:07;;;;;;;;;;;;;;;19.98;29.20;93896.00;5110150;28;20449;-82
2021/05/09 08:18:34;;;;;;;;;;;;;;;20.07;27.90;93897.09;5110910;28;19946;-82
2021/05/09 08:21:01;;;;;;;;;;;;;;;20.36;28.33;93906.38;5110857;28;19936;-83
2021/05/09 08:23:27;;;;;;;;;;;;;;;20.34;27.75;93898.81;5110622;28;19930;-83
2021/05/09 08:25:53;;;;;;;;;;;;;;;20.14;25.55;93902.09;5108852;28;19919;-83
2021/05/09 08:28:21;;;;;;;;;;;;;;;19.76;26.64;93902.06;5110569;28;19930;-81
2021/05/09 08:30:47;;;;;;;;;;;;;;;19.54;26.71;93895.16;5109684;28;19993;-82
2021/05/09 08:33:13;;;;;;;;;;;;;;;19.08;25.73;93905.94;5111663;28;20325;-83
2021/05/09 08:35:39;;;;;;;;;;;;;;;19.04;26.86;93904.84;5114381;28;19930;-82
2021/05/09 08:38:05;;;;;;;;;;;;;;;19.19;26.51;93905.00;5113932;28;19923;-83
2021/05/09 08:40:31;;;;;;;;;;;;;;;18.72;24.30;93901.13;5113861;28;19973;-84
2021/05/09 08:42:57;;;;;;;;;;;;;;;18.52;26.19;93907.66;5114018;28;20382;-83
2021/05/09 08:45:25;;;;;;;;;;;;;;;19.10;27.76;93901.28;5113834;28;19981;-83
2021/05/09 08:47:53;;;;;;;;;;;;;;;19.23;25.55;93898.28;5113831;28;19924;-84
2021/05/09 08:50:20;;;;;;;;;;;;;;;19.52;26.27;93904.25;5113637;28;20381;-83
2021/05/09 08:52:47;;;;;;;;;;;;;;;19.39;25.03;93897.63;5113798;28;19965;-83
2021/05/09 08:55:15;;;;;;;;;;;;;;;19.69;24.71;93902.31;5114148;28;19924;-82
2021/05/09 08:57:41;;;;;;;;;;;;;;;19.97;25.30;93884.78;5113903;28;20367;-82
2021/05/09 09:00:08;;;;;;;;;;;;;;;19.77;25.27;93888.78;5113921;28;19926;-84
2021/05/09 09:02:35;;;;;;;;;;;;;;;19.08;25.80;93892.94;5114114;28;19924;-83
2021/05/09 09:05:01;;;;;;;;;;;;;;;18.93;26.03;93896.13;5113604;28;20290;-82
2021/05/09 09:07:43;;;;;;;;;;;;;;;18.92;23.93;93894.53;5113361;28;19924;-83
2021/05/09 09:10:09;;;;;;;;;;;;;;;19.24;24.99;93893.84;5113411;28;19919;-83
2021/05/09 09:12:37;;;;;;;;;;;;;;;19.17;25.99;93890.66;5113297;28;19924;-83
2021/05/09 09:15:03;;;;;;;;;;;;;;;19.44;26.62;93880.22;5113701;28;20366;-81
2021/05/09 09:17:29;;;;;;;;;;;;;;;19.60;26.18;93882.94;5113247;28;19930;-83
2021/05/09 09:20:05;;;;;;;;;;;;;;;19.51;25.43;93874.78;5113381;28;20374;-84
2021/05/09 09:22:50;;;;;;;;;;;;;;;19.84;26.58;93875.56;5113414;28;20446;-83
2021/05/09 09:25:17;;;;;;;;;;;;;;;20.00;26.48;93881.66;5111849;28;19972;-84
2021/05/09 09:27:43;;;;;;;;;;;;;;;20.42;25.64;93877.44;5105251;28;19924;-84
2021/05/09 09:30:10;;;;;;;;;;;;;;;20.94;25.15;93885.47;5113151;28;19920;-82
2021/05/09 09:32:36;;;;;;;;;;;;;;;21.44;25.44;93873.78;5113295;28;19923;-83
2021/05/09 09:35:04;;;;;;;;;;;;;;;21.79;24.70;93872.19;5113411;28;19926;-84
2021/05/09 09:37:31;;;;;;;;;;;;;;;21.99;23.62;93881.84;5113815;28;19973;-83
2021/05/09 09:39:59;;;;;;;;;;;;;;;22.07;24.08;93877.91;5113645;28;20053;-85
2021/05/09 09:42:35;;;;;;;;;;;;;;;21.80;23.08;93873.00;5112781;28;20374;-83
2021/05/09 09:45:12;;;;;;;;;;;;;;;22.20;23.53;93868.72;5112603;28;19924;-84
2021/05/09 09:47:47;;;;;;;;;;;;;;;22.18;23.09;93872.66;5113047;28;19935;-85
2021/05/09 09:50:28;;;;;;;;;;;;;;;22.37;25.30;93865.00;5112840;28;19959;-83
2021/05/09 09:52:55;;;;;;;;;;;;;;;22.67;24.44;93869.38;5111949;28;19942;-83
2021/05/09 09:55:21;;;;;;;;;;;;;;;22.53;24.18;93868.38;5112571;28;20374;-83
2021/05/09 09:57:50;;;;;;;;;;;;;;;22.81;24.33;93863.53;5112782;28;19965;-83
2021/05/09 10:00:17;;;;;;;;;;;;;;;22.99;24.41;93859.50;5112829;28;19930;-84
2021/05/09 10:02:43;;;;;;;;;;;;;;;23.03;23.91;93863.16;5112555;28;19920;-84
2021/05/09 10:05:10;;;;;;;;;;;;;;;23.26;22.74;93860.09;5112744;28;19930;-84
2021/05/09 10:07:36;;;;;;;;;;;;;;;23.25;23.90;93856.72;5112422;28;19920;-84
2021/05/09 10:10:04;;;;;;;;;;;;;;;23.40;23.92;93855.03;5112599;28;19920;-84
2021/05/09 10:12:30;;;;;;;;;;;;;;;23.45;22.13;93847.94;5112192;28;19920;-85
2021/05/09 10:14:56;;;;;;;;;;;;;;;23.33;23.26;93856.13;5112740;28;19919;-86
2021/05/09 10:17:23;;;;;;;;;;;;;;;23.01;22.01;93856.59;5112084;28;19930;-87
2021/05/09 10:19:49;;;;;;;;;;;;;;;21.44;23.99;93853.63;5112384;28;19926;-86
2021/05/09 10:22:24;;;;;;;;;;;;;;;21.04;25.11;93857.78;5112522;28;19930;-85
2021/05/09 10:24:50;;;;;;;;;;;;;;;20.25;26.32;93853.38;5112593;28;19919;-86
2021/05/09 10:27:17;;;;;;;;;;;;;;;20.52;25.81;93845.41;5110440;28;19924;-86
2021/05/09 10:29:57;;;;;;;;;;;;;;;19.99;25.94;93855.84;5111562;28;19934;-88
2021/05/09 10:32:44;;;;;;;;;;;;;;;20.11;25.45;93856.44;5111610;28;20396;-89
2021/05/09 10:35:13;;;;;;;;;;;;;;;20.68;26.52;93848.81;5111939;28;20186;-87
2021/05/09 10:37:57;;;;;;;;;;;;;;;21.07;25.39;93847.59;5111452;28;19920;-88
2021/05/09 10:40:41;;;;;;;;;;;;;;;20.52;25.02;93840.19;5110926;28;20351;-86
2021/05/09 10:43:30;;;;;;;;;;;;;;;20.64;26.46;93836.56;5111355;28;19924;-85
2021/05/09 10:45:56;;;;;;;;;;;;;;;21.25;26.03;93826.47;5111481;28;19924;-85
2021/05/09 10:48:30;;;;;;;;;;;;;;;21.84;25.53;93826.97;5111447;28;19958;-85
2021/05/09 10:51:22;;;;;;;;;;;;;;;22.48;24.93;93829.09;5111280;28;19924;-84
2021/05/09 10:53:48;;;;;;;;;;;;;;;22.98;25.53;93813.41;5111407;28;20343;-85
2021/05/09 10:56:29;;;;;;;;;;;;;;;23.28;24.52;93816.84;5111317;28;19919;-86
2021/05/09 10:58:57;;;;;;;;;;;;;;;23.68;22.94;93816.78;5111620;28;20044;-86
2021/05/09 11:01:24;;;;;;;;;;;;;;;23.79;22.35;93808.81;5111410;28;20014;-86
2021/05/09 11:03:52;;;;;;;;;;;;;;;24.03;23.77;93806.22;5111549;28;20412;-86
2021/05/09 11:06:18;;;;;;;;;;;;;;;24.14;23.40;93805.06;5111201;28;19963;-86
2021/05/09 11:08:58;;;;;;;;;;;;;;;24.27;21.93;93803.59;5111390;28;19924;-87
2021/05/09 11:11:39;;;;;;;;;;;;;;;24.31;21.86;93803.81;5110971;28;19939;-89
2021/05/09 11:14:19;;;;;;;;;;;;;;;22.97;22.95;93803.97;5109954;28;20378;-86
2021/05/09 11:17:01;;;;;;;;;;;;;;;22.21;24.48;93797.03;5110819;28;19920;-87
2021/05/09 11:19:34;;;;;;;;;;;;;;;22.84;25.48;93789.66;5111061;28;19920;-86
2021/05/09 11:22:00;;;;;;;;;;;;;;;22.71;24.15;93793.66;5111313;28;19926;-87
2021/05/09 11:24:27;;;;;;;;;;;;;;;23.32;24.72;93783.03;5110672;28;19920;-87
2021/05/09 11:26:53;;;;;;;;;;;;;;;23.71;24.91;93783.97;5110848;28;19926;-84
2021/05/09 11:29:21;;;;;;;;;;;;;;;23.93;23.44;93783.47;5110661;28;19920;-87
2021/05/09 11:31:48;;;;;;;;;;;;;;;24.28;24.23;93772.88;5111215;28;20278;-87
2021/05/09 11:34:14;;;;;;;;;;;;;;;23.98;23.73;93772.16;5111387;28;20276;-86
2021/05/09 11:36:41;;;;;;;;;;;;;;;23.90;23.03;93773.56;5110961;28;19926;-87
2021/05/09 11:39:33;;;;;;;;;;;;;;;23.79;22.82;93770.25;5110362;28;19923;-89
2021/05/09 11:42:15;;;;;;;;;;;;;;;22.73;24.54;93769.81;5110586;28;20291;-88
2021/05/09 11:44:43;;;;;;;;;;;;;;;22.39;23.55;93766.06;5108339;28;19987;-89
2021/05/09 11:47:10;;;;;;;;;;;;;;;22.13;24.35;93772.19;5099290;28;19965;-90
2021/05/09 11:49:36;;;;;;;;;;;;;;;22.32;25.67;93763.75;5089256;28;19928;-87
2021/05/09 11:52:14;;;;;;;;;;;;;;;22.99;23.34;93765.19;5095515;28;19942;-89
2021/05/09 11:54:44;;;;;;;;;;;;;;;22.83;23.49;93767.91;5099021;28;19970;-88
2021/05/09 11:57:10;;;;;;;;;;;;;;;23.06;23.33;93762.25;5108050;28;19923;-89
2021/05/09 11:59:40;;;;;;;;;;;;;;;22.68;22.12;93760.19;5110603;28;19919;-88
2021/05/09 12:02:27;;;;;;;;;;;;;;;22.85;21.45;93756.41;5110377;28;19930;-87
2021/05/09 12:05:09;;;;;;;;;;;;;;;22.72;21.32;93761.19;5110011;28;19930;-90
2021/05/09 12:07:42;;;;;;;;;;;;;;;21.97;22.53;93761.03;4920350;28;5001020;-88
2021/05/09 12:10:09;;;;;;;;;;;;;;;22.18;21.62;93749.69;5110150;28;20366;-86
2021/05/09 12:12:36;;;;;;;;;;;;;;;22.37;21.89;93755.88;5109068;28;19923;-88
2021/05/09 12:15:06;;;;;;;;;;;;;;;22.79;22.34;93745.97;5107458;28;19930;-86
2021/05/09 12:17:34;;;;;;;;;;;;;;;22.00;22.68;93741.41;5110169;28;20010;-88
2021/05/09 12:20:00;;;;;;;;;;;;;;;21.79;22.75;93741.47;5110097;28;19970;-88
2021/05/09 12:22:37;;;;;;;;;;;;;;;21.91;23.25;93737.75;5110033;28;19923;-88
2021/05/09 12:25:03;;;;;;;;;;;;;;;21.98;22.39;93735.66;5109896;28;19952;-90
2021/05/09 12:27:29;;;;;;;;;;;;;;;22.05;22.16;93744.00;5109794;28;19920;-89
2021/05/09 12:29:56;;;;;;;;;;;;;;;21.97;22.34;93736.69;5109919;28;19931;-89
2021/05/09 12:32:24;;;;;;;;;;;;;;;21.96;21.53;93735.13;5109749;28;20290;-88
2021/05/09 12:35:11;;;;;;;;;;;;;;;21.55;22.82;93730.78;5109809;28;20018;-90
2021/05/09 12:37:52;;;;;;;;;;;;;;;22.20;24.20;93729.25;5110068;28;20324;-88
2021/05/09 12:40:22;;;;;;;;;;;;;;;22.71;22.80;93730.06;5109087;28;20037;-88
2021/05/09 12:42:52;;;;;;;;;;;;;;;22.10;22.11;93728.28;5110670;28;20362;-87
2021/05/09 12:45:19;;;;;;;;;;;;;;;22.54;22.46;93729.34;5098145;28;19948;-90
2021/05/09 12:47:58;;;;;;;;;;;;;;;22.89;22.06;93718.09;5089391;28;20359;-88
2021/05/09 12:50:28;;;;;;;;;;;;;;;23.38;22.01;93711.16;5089301;28;19935;-89
2021/05/09 12:52:56;;;;;;;;;;;;;;;23.51;21.08;93720.19;5089433;28;19966;-90